createdAt,value
2022-11-09T00:01:04.202Z,7.81
2022-11-09T00:03:32.389Z,7.80
2022-11-09T00:06:01.626Z,7.76
2022-11-09T00:08:30.333Z,7.78
2022-11-09T00:11:04.469Z,7.78
2022-11-09T00:13:32.740Z,7.86
2022-11-09T00:16:02.412Z,7.76
2022-11-09T00:18:30.453Z,7.73
2022-11-09T00:20:59.363Z,7.70
2022-11-09T00:23:27.384Z,7.71
2022-11-09T00:25:55.397Z,7.69
2022-11-09T00:28:23.403Z,7.77
2022-11-09T00:30:51.425Z,7.74
2022-11-09T00:33:21.099Z,7.78
2022-11-09T00:35:49.343Z,7.75
2022-11-09T00:38:17.323Z,7.75
2022-11-09T00:40:45.488Z,7.67
2022-11-09T00:43:13.548Z,7.68
2022-11-09T00:45:41.813Z,7.66
2022-11-09T00:48:12.684Z,7.68
2022-11-09T00:50:42.109Z,7.68
2022-11-09T00:53:10.123Z,7.69
2022-11-09T00:55:38.122Z,7.61
2022-11-09T00:58:06.102Z,7.60
2022-11-09T01:00:34.088Z,7.56
2022-11-09T01:03:02.090Z,7.50
2022-11-09T01:05:30.076Z,7.52
2022-11-09T01:07:59.526Z,7.53
2022-11-09T01:10:27.536Z,7.51
2022-11-09T01:12:55.536Z,7.47
2022-11-09T01:15:23.565Z,7.50
2022-11-09T01:17:51.640Z,7.49
2022-11-09T01:20:19.760Z,7.46
2022-11-09T01:22:47.832Z,7.40
2022-11-09T01:25:17.387Z,7.35
2022-11-09T01:27:45.406Z,7.37
2022-11-09T01:30:14.611Z,7.32
2022-11-09T01:32:42.621Z,7.31
2022-11-09T01:35:10.947Z,7.28
2022-11-09T01:37:39.027Z,7.32
2022-11-09T01:40:08.146Z,7.30
2022-11-09T01:42:39.334Z,7.21
2022-11-09T01:45:27.619Z,7.24
2022-11-09T01:48:00.912Z,7.27
2022-11-09T01:50:36.083Z,7.26
2022-11-09T01:53:08.571Z,7.20
2022-11-09T01:55:37.299Z,7.21
2022-11-09T01:58:09.393Z,7.17
2022-11-09T02:00:41.853Z,7.07
2022-11-09T02:03:14.242Z,7.10
2022-11-09T02:05:43.790Z,7.07
2022-11-09T02:08:15.871Z,7.10
2022-11-09T02:10:51.391Z,7.09
2022-11-09T02:13:24.106Z,7.00
2022-11-09T02:15:51.954Z,7.03
2022-11-09T02:18:20.974Z,6.99
2022-11-09T02:20:52.441Z,6.96
2022-11-09T02:23:21.159Z,6.96
2022-11-09T02:25:52.626Z,6.94
2022-11-09T02:28:21.323Z,6.96
2022-11-09T02:30:54.358Z,6.97
2022-11-09T02:33:22.694Z,7.01
2022-11-09T02:35:52.405Z,6.93
2022-11-09T02:38:20.502Z,6.94
2022-11-09T02:40:51.428Z,6.91
2022-11-09T02:43:20.139Z,6.92
2022-11-09T02:45:48.406Z,6.92
2022-11-09T02:48:16.450Z,6.89
2022-11-09T02:50:44.480Z,6.86
2022-11-09T02:53:13.838Z,6.86
2022-11-09T02:55:41.820Z,6.85
2022-11-09T02:58:09.807Z,6.83
2022-11-09T03:00:37.855Z,6.81
2022-11-09T03:03:06.560Z,6.81
2022-11-09T03:05:34.642Z,6.80
2022-11-09T03:08:03.303Z,6.78
2022-11-09T03:10:32.703Z,6.79
2022-11-09T03:13:00.782Z,6.73
2022-11-09T03:15:28.782Z,6.70
2022-11-09T03:17:57.611Z,6.69
2022-11-09T03:20:25.624Z,6.71
2022-11-09T03:22:53.680Z,6.71
2022-11-09T03:25:21.671Z,6.75
2022-11-09T03:27:51.080Z,6.79
2022-11-09T03:30:20.014Z,6.78
2022-11-09T03:32:50.577Z,6.73
2022-11-09T03:35:18.972Z,6.73
2022-11-09T03:37:47.039Z,6.71
2022-11-09T03:40:15.078Z,6.70
2022-11-09T03:42:45.950Z,6.73
2022-11-09T03:45:16.765Z,6.67
2022-11-09T03:47:46.007Z,6.70
2022-11-09T03:50:15.806Z,6.67
2022-11-09T03:52:46.570Z,6.70
2022-11-09T03:55:15.955Z,6.70
2022-11-09T03:57:45.916Z,6.70
2022-11-09T04:00:18.532Z,6.71
2022-11-09T04:02:46.722Z,6.70
2022-11-09T04:05:15.745Z,6.75
2022-11-09T04:07:48.974Z,6.73
2022-11-09T04:10:17.428Z,6.75
2022-11-09T04:12:45.473Z,6.74
2022-11-09T04:15:15.121Z,6.75
2022-11-09T04:17:44.767Z,6.74
2022-11-09T04:20:14.399Z,6.73
2022-11-09T04:22:42.452Z,6.71
2022-11-09T04:25:10.578Z,6.71
2022-11-09T04:27:38.634Z,6.71
2022-11-09T04:30:07.712Z,6.66
2022-11-09T04:32:37.113Z,6.68
2022-11-09T04:35:05.507Z,6.67
2022-11-09T04:37:33.542Z,6.73
2022-11-09T04:40:01.593Z,6.65
2022-11-09T04:42:29.555Z,6.61
2022-11-09T04:44:57.539Z,6.62
2022-11-09T04:47:25.538Z,6.62
2022-11-09T04:49:54.919Z,6.63
2022-11-09T04:52:22.959Z,6.63
2022-11-09T04:54:51.000Z,6.66
2022-11-09T04:57:19.004Z,6.62
2022-11-09T04:59:47.011Z,6.65
2022-11-09T05:02:14.997Z,6.64
2022-11-09T05:04:43.059Z,6.60
2022-11-09T05:07:12.507Z,6.60
2022-11-09T05:09:40.676Z,6.59
2022-11-09T05:12:08.847Z,6.61
2022-11-09T05:14:38.082Z,6.58
2022-11-09T05:17:06.943Z,6.57
2022-11-09T05:19:34.970Z,6.60
2022-11-09T05:22:23.587Z,6.60
2022-11-09T05:24:52.079Z,6.54
2022-11-09T05:27:20.174Z,6.53
2022-11-09T05:29:48.193Z,6.54
2022-11-09T05:32:16.156Z,6.53
2022-11-09T05:34:44.165Z,6.51
2022-11-09T05:37:12.849Z,6.52
2022-11-09T05:39:40.842Z,6.51
2022-11-09T05:42:10.872Z,6.56
2022-11-09T05:44:38.885Z,6.56
2022-11-09T05:47:06.967Z,6.60
2022-11-09T05:49:35.008Z,6.60
2022-11-09T05:52:03.392Z,6.57
2022-11-09T05:54:31.426Z,6.55
2022-11-09T05:57:01.729Z,6.56
2022-11-09T05:59:31.148Z,6.59
2022-11-09T06:01:59.216Z,6.58
2022-11-09T06:04:27.243Z,6.55
2022-11-09T06:06:55.356Z,6.51
2022-11-09T06:09:23.412Z,6.51
2022-11-09T06:11:51.788Z,6.47
2022-11-09T06:14:19.840Z,6.44
2022-11-09T06:16:51.168Z,6.52
2022-11-09T06:19:19.236Z,6.56
2022-11-09T06:21:47.337Z,6.59
2022-11-09T06:24:15.721Z,6.58
2022-11-09T06:26:43.762Z,6.50
2022-11-09T06:29:11.905Z,6.50
2022-11-09T06:31:39.984Z,6.49
2022-11-09T06:34:10.296Z,6.46
2022-11-09T06:36:38.470Z,6.55
2022-11-09T06:39:08.762Z,6.55
2022-11-09T06:41:37.130Z,6.59
2022-11-09T06:44:06.398Z,6.55
2022-11-09T06:46:34.883Z,6.50
2022-11-09T06:49:02.891Z,6.40
2022-11-09T06:51:32.261Z,6.42
2022-11-09T06:54:00.269Z,6.33
2022-11-09T06:56:28.306Z,6.34
2022-11-09T06:58:56.325Z,6.40
2022-11-09T07:01:30.100Z,6.40
2022-11-09T07:03:58.209Z,6.39
2022-11-09T07:06:27.418Z,6.43
2022-11-09T07:08:58.452Z,6.47
2022-11-09T07:11:26.424Z,6.48
2022-11-09T07:13:57.409Z,6.45
2022-11-09T07:16:25.984Z,6.42
2022-11-09T07:18:54.041Z,6.41
2022-11-09T07:21:22.081Z,6.41
2022-11-09T07:23:50.824Z,6.43
2022-11-09T07:26:20.421Z,6.42
2022-11-09T07:28:48.459Z,6.45
2022-11-09T07:31:16.446Z,6.46
2022-11-09T07:33:44.487Z,6.55
2022-11-09T07:36:16.837Z,6.59
2022-11-09T07:38:47.906Z,6.52
2022-11-09T07:41:15.886Z,6.55
2022-11-09T07:43:45.288Z,6.57
2022-11-09T07:46:13.272Z,6.68
2022-11-09T07:48:41.308Z,6.65
2022-11-09T07:51:09.322Z,6.72
2022-11-09T07:53:37.423Z,6.74
2022-11-09T07:56:06.240Z,6.75
2022-11-09T07:58:36.244Z,6.82
2022-11-09T08:01:10.388Z,6.80
2022-11-09T08:03:38.603Z,6.78
2022-11-09T08:06:07.207Z,6.85
2022-11-09T08:08:35.350Z,6.87
2022-11-09T08:11:03.340Z,6.90
2022-11-09T08:13:31.377Z,6.95
2022-11-09T08:16:02.208Z,7.00
2022-11-09T08:18:31.652Z,7.10
2022-11-09T08:21:02.842Z,7.04
2022-11-09T08:23:30.854Z,7.01
2022-11-09T08:25:58.875Z,7.02
2022-11-09T08:28:26.932Z,7.01
2022-11-09T08:31:00.513Z,7.00
2022-11-09T08:33:30.478Z,7.03
2022-11-09T08:36:00.329Z,7.06
2022-11-09T08:38:28.409Z,7.10
2022-11-09T08:40:59.524Z,7.13
2022-11-09T08:43:27.915Z,7.14
2022-11-09T08:45:56.242Z,7.20
2022-11-09T08:48:24.243Z,7.25
2022-11-09T08:50:54.306Z,7.25
2022-11-09T08:53:24.246Z,7.25
2022-11-09T08:55:52.283Z,7.30
2022-11-09T08:58:21.421Z,7.28
2022-11-09T09:00:49.672Z,7.33
2022-11-09T09:03:17.887Z,7.39
2022-11-09T09:05:45.897Z,7.39
2022-11-09T09:08:15.778Z,7.40
2022-11-09T09:10:45.221Z,7.48
2022-11-09T09:13:13.310Z,7.53
2022-11-09T09:15:41.546Z,7.61
2022-11-09T09:18:09.568Z,7.65
2022-11-09T09:20:37.546Z,7.62
2022-11-09T09:23:06.726Z,7.64
2022-11-09T09:25:34.724Z,7.70
2022-11-09T09:28:04.253Z,7.65
2022-11-09T09:30:32.505Z,7.70
2022-11-09T09:33:01.248Z,7.70
2022-11-09T09:35:29.651Z,7.76
2022-11-09T09:37:58.355Z,7.79
2022-11-09T09:40:32.916Z,7.74
2022-11-09T09:43:01.183Z,7.81
2022-11-09T09:45:34.004Z,7.88
2022-11-09T09:48:04.346Z,7.93
2022-11-09T09:50:39.847Z,7.96
2022-11-09T09:53:24.153Z,7.97
2022-11-09T09:55:57.894Z,7.99
2022-11-09T09:58:27.906Z,8.04
2022-11-09T10:01:01.670Z,8.03
2022-11-09T10:03:29.690Z,8.08
2022-11-09T10:06:06.200Z,8.14
2022-11-09T10:08:48.405Z,8.15
2022-11-09T10:11:28.669Z,8.23
2022-11-09T10:14:21.597Z,8.23
2022-11-09T10:16:57.403Z,8.27
2022-11-09T10:19:41.724Z,8.31
2022-11-09T10:22:18.388Z,8.31
2022-11-09T10:25:20.641Z,8.36
2022-11-09T10:27:51.671Z,8.37
2022-11-09T10:30:21.753Z,8.40
2022-11-09T10:32:55.532Z,8.40
2022-11-09T10:35:30.532Z,8.39
2022-11-09T10:37:58.706Z,8.35
2022-11-09T10:40:30.127Z,8.33
2022-11-09T10:43:00.284Z,8.37
2022-11-09T10:45:34.290Z,8.40
2022-11-09T10:48:04.485Z,8.43
2022-11-09T10:50:35.799Z,8.46
2022-11-09T10:53:15.227Z,8.44
2022-11-09T10:55:51.922Z,8.49
2022-11-09T10:58:33.617Z,8.52
2022-11-09T11:01:04.557Z,8.51
2022-11-09T11:03:37.104Z,8.53
2022-11-09T11:06:07.077Z,8.55
2022-11-09T11:08:39.307Z,8.47
2022-11-09T11:11:33.374Z,8.50
2022-11-09T11:14:18.498Z,8.54
2022-11-09T11:16:50.890Z,8.56
2022-11-09T11:19:35.002Z,8.60
2022-11-09T11:22:23.873Z,8.61
2022-11-09T11:24:57.451Z,8.60
2022-11-09T11:27:31.404Z,8.58
2022-11-09T11:30:06.860Z,8.64
2022-11-09T11:32:34.975Z,8.64
2022-11-09T11:35:05.958Z,8.69
2022-11-09T11:37:47.386Z,8.63
2022-11-09T11:40:24.125Z,8.64
2022-11-09T11:43:03.738Z,8.62
2022-11-09T11:45:41.297Z,8.63
2022-11-09T11:48:39.252Z,8.64
2022-11-09T11:51:14.432Z,8.74
2022-11-09T11:53:59.244Z,8.77
2022-11-09T11:56:33.373Z,8.75
2022-11-09T11:59:20.183Z,8.76
2022-11-09T12:02:01.802Z,8.75
2022-11-09T12:04:56.202Z,8.78
2022-11-09T12:07:36.503Z,8.67
2022-11-09T12:10:22.869Z,8.69
2022-11-09T12:13:01.483Z,8.65
2022-11-09T12:15:51.655Z,8.66
2022-11-09T12:18:47.594Z,8.61
2022-11-09T12:21:21.635Z,8.53
2022-11-09T12:24:07.493Z,8.65
2022-11-09T12:27:11.032Z,8.60
2022-11-09T12:29:51.646Z,8.69
2022-11-09T12:32:28.947Z,8.64
2022-11-09T12:35:04.517Z,8.62
2022-11-09T12:37:38.537Z,8.62
2022-11-09T12:40:21.508Z,8.60
2022-11-09T12:42:53.385Z,8.49
2022-11-09T12:45:28.432Z,8.55
2022-11-09T12:48:00.007Z,8.53
2022-11-09T12:50:29.359Z,8.52
2022-11-09T12:52:57.701Z,8.59
2022-11-09T12:55:34.481Z,8.62
2022-11-09T12:58:02.591Z,8.60
2022-11-09T13:00:51.185Z,8.56
2022-11-09T13:03:24.338Z,8.53
2022-11-09T13:06:16.640Z,8.53
2022-11-09T13:08:57.668Z,8.59
2022-11-09T13:11:36.076Z,8.58
2022-11-09T13:14:36.030Z,8.64
2022-11-09T13:17:53.887Z,8.65
2022-11-09T13:20:57.918Z,8.57
2022-11-09T13:24:03.328Z,8.56
2022-11-09T13:26:57.930Z,8.58
2022-11-09T13:29:27.867Z,8.57
2022-11-09T13:32:24.548Z,8.59
2022-11-09T13:34:54.521Z,8.58
2022-11-09T13:37:49.511Z,8.52
2022-11-09T13:40:49.816Z,8.53
2022-11-09T13:43:28.083Z,8.57
2022-11-09T13:45:58.432Z,8.55
2022-11-09T13:48:36.359Z,8.53
2022-11-09T13:51:07.177Z,8.51
2022-11-09T13:53:57.139Z,8.53
2022-11-09T13:56:29.746Z,8.55
2022-11-09T13:59:06.449Z,8.48
2022-11-09T14:01:38.496Z,8.49
2022-11-09T14:04:06.937Z,8.52
2022-11-09T14:06:35.061Z,8.51
2022-11-09T14:09:04.415Z,8.49
2022-11-09T14:11:48.406Z,8.49
2022-11-09T14:14:41.769Z,8.53
2022-11-09T14:17:17.164Z,8.42
2022-11-09T14:19:56.501Z,8.40
2022-11-09T14:22:24.602Z,8.48
2022-11-09T14:24:52.700Z,8.45
2022-11-09T14:27:22.536Z,8.50
2022-11-09T14:29:55.297Z,8.49
2022-11-09T14:32:27.987Z,8.45
2022-11-09T14:35:11.673Z,8.44
2022-11-09T14:37:45.237Z,8.49
2022-11-09T14:40:19.603Z,8.43
2022-11-09T14:42:53.332Z,8.42
2022-11-09T14:45:23.115Z,8.46
2022-11-09T14:47:54.852Z,8.44
2022-11-09T14:50:25.383Z,8.42
2022-11-09T14:52:56.823Z,8.41
2022-11-09T14:55:26.609Z,8.46
2022-11-09T14:57:56.804Z,8.45
2022-11-09T15:00:33.115Z,8.46
2022-11-09T15:03:21.988Z,8.46
2022-11-09T15:05:50.599Z,8.43
2022-11-09T15:08:22.807Z,8.46
2022-11-09T15:10:52.551Z,8.42
2022-11-09T15:13:21.417Z,8.40
2022-11-09T15:15:55.876Z,8.36
2022-11-09T15:18:33.538Z,8.41
2022-11-09T15:21:17.144Z,8.41
2022-11-09T15:23:46.349Z,8.35
2022-11-09T15:26:36.681Z,8.34
2022-11-09T15:29:39.556Z,8.31
2022-11-09T15:32:18.753Z,8.33
2022-11-09T15:34:55.310Z,8.33
2022-11-09T15:37:29.948Z,8.41
2022-11-09T15:39:58.804Z,8.37
2022-11-09T15:42:28.073Z,8.38
2022-11-09T15:44:58.123Z,8.37
2022-11-09T15:47:33.328Z,8.34
2022-11-09T15:50:02.141Z,8.32
2022-11-09T15:52:30.417Z,8.36
2022-11-09T15:54:58.495Z,8.39
2022-11-09T15:57:26.548Z,8.36
2022-11-09T15:59:54.569Z,8.35
2022-11-09T16:02:22.584Z,8.33
2022-11-09T16:04:52.250Z,8.34
2022-11-09T16:07:20.307Z,8.37
2022-11-09T16:09:48.324Z,8.34
2022-11-09T16:12:16.347Z,8.38
2022-11-09T16:14:44.416Z,8.44
2022-11-09T16:17:12.422Z,8.40
2022-11-09T16:19:42.676Z,8.43
2022-11-09T16:22:12.614Z,8.41
2022-11-09T16:24:40.964Z,8.41
2022-11-09T16:27:17.105Z,8.42
2022-11-09T16:29:50.434Z,8.43
2022-11-09T16:32:18.464Z,8.45
2022-11-09T16:34:53.512Z,8.46
2022-11-09T16:37:40.386Z,8.44
2022-11-09T16:40:11.405Z,8.47
2022-11-09T16:42:40.228Z,8.48
2022-11-09T16:45:14.526Z,8.49
2022-11-09T16:47:49.978Z,8.52
2022-11-09T16:50:18.509Z,8.51
2022-11-09T16:52:47.888Z,8.51
2022-11-09T16:55:16.113Z,8.51
2022-11-09T16:57:46.358Z,8.52
2022-11-09T17:00:16.016Z,8.50
2022-11-09T17:02:44.008Z,8.53
2022-11-09T17:05:12.009Z,8.52
2022-11-09T17:07:42.854Z,8.51
2022-11-09T17:10:13.493Z,8.50
2022-11-09T17:12:41.565Z,8.51
2022-11-09T17:15:10.902Z,8.55
2022-11-09T17:17:38.952Z,8.53
2022-11-09T17:20:08.512Z,8.54
2022-11-09T17:22:39.268Z,8.57
2022-11-09T17:25:12.656Z,8.56
2022-11-09T17:27:41.052Z,8.60
2022-11-09T17:30:10.788Z,8.61
2022-11-09T17:32:38.844Z,8.61
2022-11-09T17:35:07.182Z,8.61
2022-11-09T17:37:35.224Z,8.63
2022-11-09T17:40:04.247Z,8.64
2022-11-09T17:42:35.835Z,8.66
2022-11-09T17:45:04.265Z,8.67
2022-11-09T17:47:33.004Z,8.67
2022-11-09T17:50:01.430Z,8.67
2022-11-09T17:52:30.330Z,8.67
2022-11-09T17:54:59.187Z,8.64
2022-11-09T17:57:27.831Z,8.64
2022-11-09T17:59:57.273Z,8.65
2022-11-09T18:02:25.919Z,8.68
2022-11-09T18:04:54.032Z,8.67
2022-11-09T18:07:22.310Z,8.70
2022-11-09T18:09:50.948Z,8.71
2022-11-09T18:12:19.019Z,8.72
2022-11-09T18:14:47.009Z,8.73
2022-11-09T18:17:16.397Z,8.75
2022-11-09T18:19:44.440Z,8.75
2022-11-09T18:22:13.069Z,8.75
2022-11-09T18:24:41.525Z,8.73
2022-11-09T18:27:09.943Z,8.69
2022-11-09T18:29:38.422Z,8.70
2022-11-09T18:32:07.010Z,8.67
2022-11-09T18:34:36.469Z,8.71
2022-11-09T18:37:04.832Z,8.72
2022-11-09T18:39:33.272Z,8.71
2022-11-09T18:42:05.453Z,8.70
2022-11-09T18:44:34.086Z,8.76
2022-11-09T18:47:05.517Z,8.79
2022-11-09T18:49:34.407Z,8.80
2022-11-09T18:52:04.321Z,8.77
2022-11-09T18:54:33.962Z,8.80
2022-11-09T18:57:02.388Z,8.80
2022-11-09T18:59:30.952Z,8.81
2022-11-09T19:01:59.053Z,8.85
2022-11-09T19:04:27.660Z,8.83
2022-11-09T19:06:56.389Z,8.84
2022-11-09T19:09:35.747Z,8.87
2022-11-09T19:12:08.500Z,8.87
2022-11-09T19:14:41.338Z,8.88
2022-11-09T19:17:13.604Z,8.90
2022-11-09T19:19:42.914Z,8.93
2022-11-09T19:22:17.398Z,8.95
2022-11-09T19:24:47.987Z,8.97
2022-11-09T19:27:16.545Z,8.98
2022-11-09T19:29:45.119Z,8.98
2022-11-09T19:32:13.178Z,8.99
2022-11-09T19:34:42.933Z,9.00
2022-11-09T19:37:11.535Z,8.98
2022-11-09T19:39:48.029Z,9.01
2022-11-09T19:42:24.732Z,9.01
2022-11-09T19:44:56.397Z,8.97
2022-11-09T19:47:25.365Z,8.91
2022-11-09T19:49:56.162Z,8.97
2022-11-09T19:52:24.617Z,9.00
2022-11-09T19:54:53.177Z,9.03
2022-11-09T19:57:23.502Z,9.02
2022-11-09T19:59:53.426Z,9.02
2022-11-09T20:02:22.528Z,9.01
2022-11-09T20:04:52.749Z,8.92
2022-11-09T20:07:21.061Z,8.87
2022-11-09T20:09:49.604Z,8.85
2022-11-09T20:12:35.530Z,8.83
2022-11-09T20:15:05.622Z,8.83
2022-11-09T20:17:34.054Z,8.83
2022-11-09T20:20:02.102Z,8.84
2022-11-09T20:22:30.566Z,8.82
2022-11-09T20:24:59.220Z,8.86
2022-11-09T20:27:31.103Z,8.87
2022-11-09T20:30:00.866Z,8.83
2022-11-09T20:32:30.723Z,8.80
2022-11-09T20:35:01.576Z,8.80
2022-11-09T20:37:30.515Z,8.79
2022-11-09T20:39:59.173Z,8.71
2022-11-09T20:42:27.630Z,8.70
2022-11-09T20:44:57.103Z,8.70
2022-11-09T20:47:49.582Z,8.72
2022-11-09T20:50:16.192Z,8.67
2022-11-09T20:52:44.903Z,8.64
2022-11-09T20:55:13.485Z,8.66
2022-11-09T20:57:42.404Z,8.66
2022-11-09T21:00:12.845Z,8.66
2022-11-09T21:02:42.030Z,8.66
2022-11-09T21:05:10.418Z,8.64
2022-11-09T21:07:39.915Z,8.66
2022-11-09T21:10:08.433Z,8.69
2022-11-09T21:12:36.562Z,8.67
2022-11-09T21:15:05.362Z,8.67
2022-11-09T21:17:35.006Z,8.65
2022-11-09T21:20:03.023Z,8.67
2022-11-09T21:22:45.249Z,8.66
2022-11-09T21:25:32.187Z,8.64
2022-11-09T21:28:17.908Z,8.70
2022-11-09T21:30:46.031Z,8.68
2022-11-09T21:33:13.998Z,8.69
2022-11-09T21:35:42.053Z,8.63
2022-11-09T21:38:10.030Z,8.59
2022-11-09T21:40:39.551Z,8.58
2022-11-09T21:43:07.599Z,8.57
2022-11-09T21:45:35.565Z,8.59
2022-11-09T21:48:03.680Z,8.58
2022-11-09T21:50:31.761Z,8.58
2022-11-09T21:53:01.779Z,8.60
2022-11-09T21:55:29.995Z,8.60
2022-11-09T21:57:59.371Z,8.64
2022-11-09T22:00:27.349Z,8.61
2022-11-09T22:02:55.386Z,8.63
2022-11-09T22:05:23.423Z,8.65
2022-11-09T22:07:51.442Z,8.62
2022-11-09T22:10:19.500Z,8.65
2022-11-09T22:13:04.994Z,8.63
2022-11-09T22:15:51.699Z,8.64
2022-11-09T22:18:33.611Z,8.58
2022-11-09T22:21:01.592Z,8.60
2022-11-09T22:23:29.637Z,8.55
2022-11-09T22:26:01.624Z,8.60
2022-11-09T22:28:29.625Z,8.60
2022-11-09T22:31:01.707Z,8.57
2022-11-09T22:33:30.867Z,8.57
2022-11-09T22:36:01.770Z,8.56
2022-11-09T22:38:30.403Z,8.58
2022-11-09T22:41:01.838Z,8.58
2022-11-09T22:43:30.055Z,8.64
2022-11-09T22:46:04.404Z,8.69
2022-11-09T22:48:33.019Z,8.66
2022-11-09T22:51:01.371Z,8.66
2022-11-09T22:53:29.684Z,8.67
2022-11-09T22:55:59.083Z,8.71
2022-11-09T22:58:27.763Z,8.70
2022-11-09T23:00:55.971Z,8.68
2022-11-09T23:03:25.460Z,8.62
2022-11-09T23:05:53.449Z,8.62
2022-11-09T23:08:21.432Z,8.58
2022-11-09T23:10:55.375Z,8.60
2022-11-09T23:13:23.800Z,8.62
2022-11-09T23:15:56.754Z,8.69
2022-11-09T23:18:43.265Z,8.75
2022-11-09T23:21:11.768Z,8.72
2022-11-09T23:23:40.007Z,8.74
2022-11-09T23:26:08.945Z,8.70
2022-11-09T23:28:37.173Z,8.71
2022-11-09T23:31:07.180Z,8.67
2022-11-09T23:33:36.699Z,8.67
2022-11-09T23:36:06.453Z,8.68
2022-11-09T23:38:35.533Z,8.66
2022-11-09T23:41:04.067Z,8.69
2022-11-09T23:43:32.317Z,8.69
2022-11-09T23:46:02.992Z,8.70
2022-11-09T23:48:31.266Z,8.69
2022-11-09T23:51:02.196Z,8.69
2022-11-09T23:53:31.337Z,8.67
2022-11-09T23:56:03.376Z,8.69
2022-11-09T23:58:31.572Z,8.67
